Time;durP1;ratioP1;P1;durP2;ratioP2;P2;SDS_P1;SDS_P2;PMS_P1;PMS_P2;Temp;Humidity;BMP_temperature;BMP_pressure;BME280_temperature;BME280_humidity;BME280_pressure;Samples;Min_cycle;Max_cycle;Signal;HPM_P1;HPM_P2
2023/10/12 00:02:52;;;;;;;9.20;5.30;;;;;;;13.92;98.74;98970.09;272116;1270;22555;-83
2023/10/12 00:08:54;;;;;;;11.80;5.00;;;;;;;13.76;98.86;98967.84;271391;1270;22226;-84
2023/10/12 00:15:23;;;;;;;13.30;4.70;;;;;;;13.58;99.27;98958.36;272648;1272;22696;-84
2023/10/12 00:21:35;;;;;;;9.10;5.20;;;;;;;13.47;99.90;98959.40;270680;1272;22358;-83
2023/10/12 00:27:41;;;;;;;9.10;4.90;;;;;;;13.35;99.95;98961.70;271242;1272;22402;-84
2023/10/12 00:33:48;;;;;;;11.10;5.20;;;;;;;13.21;100.00;98955.73;272252;1272;22556;-84
2023/10/12 00:40:04;;;;;;;14.00;5.10;;;;;;;13.09;100.00;98954.62;272218;1270;22455;-83
2023/10/12 00:46:58;;;;;;;12.70;4.50;;;;;;;13.07;100.00;98953.91;272576;1264;22286;-83
2023/10/12 00:52:45;;;;;;;13.50;5.20;;;;;;;13.09;100.00;98951.01;272046;1272;22238;-83
2023/10/12 00:58:47;;;;;;;9.00;4.60;;;;;;;13.14;100.00;98946.84;271382;1270;23350;-83
2023/10/12 01:04:53;;;;;;;19.20;5.30;;;;;;;13.24;100.00;98937.83;271042;1272;23843;-82
2023/10/12 01:11:07;;;;;;;8.90;4.90;;;;;;;13.65;100.00;98938.95;270845;1272;23155;-82
2023/10/12 01:17:17;;;;;;;9.90;4.60;;;;;;;14.24;100.00;98937.35;271285;1272;22630;-82
2023/10/12 01:23:19;;;;;;;9.00;4.90;;;;;;;14.63;100.00;98934.40;272637;1272;22217;-81
2023/10/12 01:29:25;;;;;;;8.80;4.30;;;;;;;14.69;100.00;98935.78;271469;1270;23688;-82
2023/10/12 01:35:33;;;;;;;12.20;4.80;;;;;;;14.73;100.00;98937.17;272815;1264;22309;-82
2023/10/12 01:41:40;;;;;;;12.40;4.70;;;;;;;14.77;100.00;98942.73;272865;1267;22249;-81
2023/10/12 01:47:44;;;;;;;;;;;;;;;14.93;100.00;98939.23;272727;1263;23693;-81
2023/10/12 01:53:46;;;;;;;12.30;4.80;;;;;;;14.98;100.00;98937.63;272670;1264;23530;-82
2023/10/12 01:59:49;;;;;;;11.10;4.90;;;;;;;15.06;100.00;98931.50;271316;1271;22553;-81
2023/10/12 02:06:19;;;;;;;12.20;5.00;;;;;;;15.23;100.00;98924.66;272688;1272;22180;-82
2023/10/12 02:12:25;;;;;;;11.40;4.30;;;;;;;15.34;100.00;98921.95;272548;1270;22507;-81
2023/10/12 02:18:27;;;;;;;10.60;4.40;;;;;;;15.40;100.00;98915.31;272437;1272;23725;-83
2023/10/12 02:24:29;;;;;;;9.70;4.70;;;;;;;15.42;99.93;98913.65;271698;1272;22189;-83
2023/10/12 02:30:31;;;;;;;11.60;4.90;;;;;;;15.34;99.93;98910.30;273435;1272;22982;-83
2023/10/12 02:36:36;;;;;;;13.40;4.40;;;;;;;15.20;99.98;98910.27;272663;1272;22400;-84
2023/10/12 02:42:42;;;;;;;12.60;5.10;;;;;;;15.02;100.00;98908.30;272903;1260;24486;-83
2023/10/12 02:48:47;;;;;;;10.00;5.20;;;;;;;14.87;100.00;98904.00;272869;1272;22334;-83
2023/10/12 02:54:52;;;;;;;11.80;4.70;;;;;;;14.69;100.00;98904.52;272720;1271;23358;-84
2023/10/12 03:00:57;;;;;;;12.90;5.20;;;;;;;14.56;100.00;98898.95;272923;1272;23156;-83
2023/10/12 03:07:10;;;;;;;13.00;5.20;;;;;;;14.41;100.00;98888.41;272711;1272;23663;-83
2023/10/12 03:13:23;;;;;;;12.90;4.60;;;;;;;14.28;100.00;98875.19;272673;1272;22220;-84
2023/10/12 03:19:40;;;;;;;18.80;5.20;;;;;;;14.17;100.00;98869.26;272667;1272;22191;-82
2023/10/12 03:26:16;;;;;;;13.20;5.50;;;;;;;14.08;100.00;98871.58;272605;1272;22509;-84
2023/10/12 03:32:23;;;;;;;10.90;5.40;;;;;;;14.01;100.00;98869.17;272727;1265;22333;-83
2023/10/12 03:38:33;;;;;;;14.40;5.30;;;;;;;13.94;100.00;98863.30;271210;1272;22334;-83
2023/10/12 03:44:48;;;;;;;11.10;5.80;;;;;;;13.85;100.00;98859.17;271676;1272;23021;-83
2023/10/12 03:51:11;;;;;;;13.50;5.90;;;;;;;13.78;100.00;98857.88;272539;1272;192602;-82
2023/10/12 03:57:19;;;;;;;10.40;5.40;;;;;;;13.74;100.00;98854.34;272625;1272;22210;-83
2023/10/12 04:03:36;;;;;;;7.40;4.50;;;;;;;13.67;100.00;98853.19;272168;1272;24443;-83
2023/10/12 04:09:51;;;;;;;9.40;5.60;;;;;;;13.61;100.00;98854.01;272648;1268;22390;-83
2023/10/12 04:22:24;;;;;;;12.10;5.30;;;;;;;13.66;100.00;98851.00;271485;1271;22406;-83
2023/10/12 04:28:32;;;;;;;12.60;5.30;;;;;;;13.63;100.00;98852.50;270645;1270;22543;-83
2023/10/12 04:34:46;;;;;;;12.30;6.70;;;;;;;13.59;100.00;98855.27;270794;1270;22524;-83
2023/10/12 04:41:36;;;;;;;;;;;;;;;;;;;;;
2023/10/12 04:47:36;;;;;;;15.50;6.60;;;;;;;13.44;100.00;98842.89;272615;1271;22209;-82
2023/10/12 04:53:58;;;;;;;14.30;6.50;;;;;;;13.54;100.00;98833.11;272293;1269;23431;-83
2023/10/12 05:06:56;;;;;;;14.00;6.80;;;;;;;14.21;100.00;98829.98;272484;1272;22334;-83
2023/10/12 05:13:05;;;;;;;10.40;6.20;;;;;;;14.36;100.00;98834.31;272220;1271;22551;-82
2023/10/12 05:19:07;;;;;;;14.40;6.80;;;;;;;14.42;100.00;98837.11;271562;1271;22262;-83
2023/10/12 05:25:10;;;;;;;15.00;6.80;;;;;;;14.45;100.00;98836.23;271503;1272;22315;-83
2023/10/12 05:31:13;;;;;;;12.20;6.00;;;;;;;14.53;100.00;98834.98;271426;1270;22186;-83
2023/10/12 05:37:24;;;;;;;15.30;5.80;;;;;;;14.76;100.00;98828.27;272574;1271;22554;-82
2023/10/12 05:43:29;;;;;;;16.60;6.70;;;;;;;15.12;100.00;98823.61;271359;1272;24066;-82
2023/10/12 05:49:33;;;;;;;14.90;6.30;;;;;;;15.55;100.00;98816.63;270291;1270;24364;-82
2023/10/12 05:55:35;;;;;;;16.90;5.60;;;;;;;16.10;100.00;98813.71;272918;1271;22425;-83
2023/10/12 06:01:37;;;;;;;11.20;5.20;;;;;;;16.70;100.00;98805.40;273033;1270;22188;-83
2023/10/12 06:07:39;;;;;;;12.10;5.20;;;;;;;17.11;100.00;98804.79;272608;1270;24559;-82
2023/10/12 06:13:42;;;;;;;17.80;6.10;;;;;;;17.41;100.00;98802.04;270814;1268;22320;-82
2023/10/12 06:19:46;;;;;;;13.90;5.30;;;;;;;17.58;99.94;98799.59;272039;1272;22579;-83
2023/10/12 06:25:48;;;;;;;15.40;5.00;;;;;;;17.60;97.49;98804.61;270786;1270;23865;-81
2023/10/12 06:31:52;;;;;;;10.40;5.00;;;;;;;17.54;97.47;98805.67;271277;1270;22893;-82
2023/10/12 06:50:24;;;;;;;14.80;5.70;;;;;;;17.48;96.01;98821.30;271984;1270;22586;-83
2023/10/12 06:56:27;;;;;;;10.20;4.60;;;;;;;17.49;95.70;98819.13;271527;1270;22201;-84
2023/10/12 07:02:35;;;;;;;11.70;5.50;;;;;;;17.65;95.90;98822.54;273125;1270;22305;-84
2023/10/12 07:08:42;;;;;;;12.10;5.00;;;;;;;17.90;95.45;98828.19;273115;1272;22221;-83
2023/10/12 07:14:52;;;;;;;16.00;4.80;;;;;;;18.23;95.35;98829.77;272994;1264;22235;-83
2023/10/12 07:20:54;;;;;;;12.00;4.80;;;;;;;18.63;94.64;98842.58;272314;1272;22204;-84
2023/10/12 07:27:09;;;;;;;10.80;4.80;;;;;;;18.90;93.63;98841.52;272750;1272;22353;-84
2023/10/12 07:33:11;;;;;;;14.90;4.90;;;;;;;19.46;93.62;98843.16;271448;1266;22319;-84
2023/10/12 07:45:28;;;;;;;8.50;4.50;;;;;;;20.34;90.43;98840.36;272344;1272;22299;-83
2023/10/12 07:51:53;;;;;;;12.30;5.00;;;;;;;20.23;89.52;98840.90;272577;1271;22328;-84
2023/10/12 07:57:56;;;;;;;9.50;4.20;;;;;;;20.10;89.20;98840.16;273289;1270;23193;-83
2023/10/12 08:03:58;;;;;;;13.70;5.10;;;;;;;20.17;89.03;98840.83;271697;1270;22645;-84
2023/10/12 08:10:09;;;;;;;9.90;5.00;;;;;;;20.51;88.72;98832.51;272756;1272;22604;-84
2023/10/12 08:16:17;;;;;;;12.60;4.40;;;;;;;20.96;88.38;98826.37;273129;1270;23549;-84
2023/10/12 08:22:29;;;;;;;13.50;5.80;;;;;;;21.53;87.99;98820.98;273396;1268;22190;-83
2023/10/12 08:28:37;;;;;;;11.60;4.30;;;;;;;22.31;86.37;98821.65;272970;1270;22191;-84
2023/10/12 08:47:09;;;;;;;12.00;4.50;;;;;;;24.60;80.90;98816.02;271510;1270;22571;-84
2023/10/12 08:53:14;;;;;;;11.30;3.80;;;;;;;25.25;79.24;98814.05;271082;1272;22541;-83
2023/10/12 08:59:19;;;;;;;14.60;4.50;;;;;;;25.76;77.76;98813.06;271811;1272;22584;-83
2023/10/12 09:05:24;;;;;;;17.70;4.60;;;;;;;26.47;76.25;98811.98;273140;1271;23068;-84
2023/10/12 09:11:33;;;;;;;11.30;3.80;;;;;;;26.90;74.33;98815.02;272930;1259;22533;-84
2023/10/12 09:17:40;;;;;;;10.50;3.90;;;;;;;27.33;71.66;98812.71;272378;1271;22206;-83
2023/10/12 09:23:50;;;;;;;9.60;3.90;;;;;;;27.77;69.49;98819.73;272961;1272;23003;-83
2023/10/12 09:30:15;;;;;;;9.60;3.70;;;;;;;27.94;67.54;98818.25;273134;1270;22274;-84
2023/10/12 09:36:22;;;;;;;9.00;3.70;;;;;;;28.14;64.66;98818.65;272800;1272;22310;-85
2023/10/12 09:42:44;;;;;;;9.10;3.90;;;;;;;28.04;62.62;98819.48;273001;1272;22192;-82
2023/10/12 09:48:47;;;;;;;8.30;3.60;;;;;;;28.40;61.59;98816.73;272760;1271;22222;-82
2023/10/12 09:55:24;;;;;;;;;;;;;;;;;;;;;
2023/10/12 10:08:04;;;;;;;14.10;4.40;;;;;;;29.08;57.63;98814.86;272745;1272;22437;-82
2023/10/12 10:14:13;;;;;;;13.50;4.30;;;;;;;29.21;55.62;98820.05;272542;1272;22363;-83
2023/10/12 10:27:03;;;;;;;16.50;4.10;;;;;;;29.20;54.30;98820.72;272994;1260;22322;-81
2023/10/12 10:33:12;;;;;;;12.70;4.50;;;;;;;29.02;54.02;98814.86;270270;1272;25454;-82
2023/10/12 10:45:19;;;;;;;11.70;4.70;;;;;;;28.06;53.03;98814.42;272842;1271;22345;-85
2023/10/12 10:51:27;;;;;;;10.60;4.60;;;;;;;27.24;53.00;98814.11;272788;1272;22190;-84
2023/10/12 10:57:37;;;;;;;11.10;4.80;;;;;;;26.65;53.50;98814.94;272625;1272;22408;-83
2023/10/12 11:03:40;;;;;;;10.40;4.30;;;;;;;26.26;54.23;98828.92;271786;1272;22541;-82
2023/10/12 11:10:05;;;;;;;9.60;4.20;;;;;;;25.85;55.01;98841.21;272216;1272;22391;-83
2023/10/12 11:22:27;;;;;;;10.10;4.10;;;;;;;25.29;55.75;98822.65;271567;1271;22519;-82
2023/10/12 11:28:29;;;;;;;11.20;4.90;;;;;;;25.17;56.88;98827.93;270725;1272;22481;-84
2023/10/12 11:34:33;;;;;;;11.80;4.40;;;;;;;25.05;56.52;98826.04;272597;1270;22187;-81
2023/10/12 11:40:37;;;;;;;11.90;4.30;;;;;;;24.74;56.16;98825.02;272795;1271;22411;-83
2023/10/12 11:46:45;;;;;;;8.90;4.40;;;;;;;24.36;56.29;98822.48;272880;1272;22192;-81
2023/10/12 11:52:50;;;;;;;12.20;4.40;;;;;;;24.13;56.29;98827.83;272938;1271;22356;-85
2023/10/12 11:58:59;;;;;;;16.90;4.70;;;;;;;23.99;56.38;98833.45;272181;1270;22298;-82
2023/10/12 12:05:00;;;;;;;11.60;4.10;;;;;;;23.66;56.11;98846.41;271126;1272;22330;-82
2023/10/12 12:11:03;;;;;;;10.40;4.10;;;;;;;23.31;56.43;98864.73;272270;1270;23937;-84
2023/10/12 12:17:05;;;;;;;13.40;4.40;;;;;;;22.92;56.68;98880.23;269733;1272;22409;-82
2023/10/12 12:23:10;;;;;;;10.40;4.30;;;;;;;22.56;57.16;98884.75;270404;1272;22570;-83
2023/10/12 12:29:15;;;;;;;10.50;4.40;;;;;;;22.36;58.43;98879.55;272253;1270;22480;-83
2023/10/12 12:35:17;;;;;;;13.50;5.10;;;;;;;22.27;58.83;98886.13;271387;1271;23116;-81
2023/10/12 12:41:19;;;;;;;9.70;4.70;;;;;;;22.27;59.49;98889.13;271274;1259;23428;-83
2023/10/12 12:47:23;;;;;;;6.90;3.90;;;;;;;22.34;60.27;98893.39;271692;1272;22387;-83
2023/10/12 12:53:26;;;;;;;13.90;5.20;;;;;;;22.32;60.67;98885.14;273050;1272;22279;-83
2023/10/12 12:59:28;;;;;;;11.60;5.30;;;;;;;22.16;61.21;98891.08;272862;1272;22213;-82
2023/10/12 13:05:32;;;;;;;15.80;5.10;;;;;;;22.00;61.92;98904.03;272945;1271;22393;-83
2023/10/12 13:11:34;;;;;;;8.00;4.70;;;;;;;21.94;62.59;98905.50;269646;1272;22644;-82
2023/10/12 13:17:40;;;;;;;11.10;5.20;;;;;;;21.88;63.43;98907.80;270553;1272;22558;-83
2023/10/12 13:23:43;;;;;;;7.90;4.50;;;;;;;21.83;63.64;98918.88;269240;1272;22527;-82
2023/10/12 13:29:48;;;;;;;12.60;4.30;;;;;;;21.73;64.28;98929.48;270736;1272;22333;-82
2023/10/12 13:36:09;;;;;;;11.30;4.60;;;;;;;21.62;63.65;98927.45;272031;1272;22334;-81
2023/10/12 13:42:11;;;;;;;10.20;4.50;;;;;;;21.52;63.99;98916.50;272517;1272;22272;-80
2023/10/12 13:48:25;;;;;;;12.10;4.30;;;;;;;21.42;64.77;98921.36;272061;1272;22190;-82
2023/10/12 13:54:29;;;;;;;13.00;4.40;;;;;;;21.28;65.15;98926.23;272815;1272;22145;-81
2023/10/12 14:00:34;;;;;;;13.90;5.00;;;;;;;21.22;65.54;98921.89;273174;1272;22196;-81
2023/10/12 14:06:36;;;;;;;15.80;5.00;;;;;;;21.25;66.18;98931.73;272485;1272;23554;-82
2023/10/12 14:12:38;;;;;;;12.60;4.70;;;;;;;21.14;66.41;98926.68;272640;1272;22222;-81
2023/10/12 14:18:41;;;;;;;8.80;4.70;;;;;;;20.99;66.73;98929.09;271608;1272;22414;-81
2023/10/12 14:24:47;;;;;;;10.20;4.60;;;;;;;20.84;67.18;98934.77;271041;1272;22548;-83
2023/10/12 14:30:50;;;;;;;12.30;4.90;;;;;;;20.67;68.07;98943.58;270104;1272;22279;-82
2023/10/12 14:36:52;;;;;;;11.90;5.20;;;;;;;20.50;68.56;98952.42;272272;1272;22794;-82
2023/10/12 14:43:12;;;;;;;13.30;5.40;;;;;;;20.34;69.02;98951.08;270294;1272;23738;-82
2023/10/12 14:49:14;;;;;;;13.20;6.10;;;;;;;20.13;70.52;98967.59;270567;1272;22619;-81
2023/10/12 14:55:16;;;;;;;13.10;6.00;;;;;;;19.79;72.15;98968.83;271150;1272;22647;-81
2023/10/12 15:01:20;;;;;;;12.10;6.30;;;;;;;19.54;73.49;98966.79;270177;1272;22522;-81
2023/10/12 15:07:21;;;;;;;12.60;5.50;;;;;;;19.36;75.21;98956.85;272047;1256;22212;-81
2023/10/12 15:13:25;;;;;;;11.70;5.90;;;;;;;19.23;76.46;98952.33;272634;1272;23387;-81
2023/10/12 15:19:28;;;;;;;14.90;6.30;;;;;;;19.10;77.50;98953.25;272497;1272;23679;-81
2023/10/12 15:25:30;;;;;;;12.00;6.10;;;;;;;18.97;78.91;98954.83;272387;1272;22425;-81
2023/10/12 15:31:32;;;;;;;21.90;7.30;;;;;;;18.83;80.30;98955.31;270855;1272;22327;-81
2023/10/12 15:37:35;;;;;;;15.10;6.80;;;;;;;18.70;81.67;98963.52;271933;1271;22420;-81
2023/10/12 15:43:37;;;;;;;11.80;6.70;;;;;;;18.56;82.06;98973.88;272780;1272;22342;-81
2023/10/12 15:49:39;;;;;;;15.40;6.90;;;;;;;18.41;83.31;98979.90;272575;1263;329579;-81
2023/10/12 15:55:43;;;;;;;17.50;8.00;;;;;;;18.34;84.06;98990.33;272197;1272;22326;-84
2023/10/12 16:02:07;;;;;;;17.80;7.50;;;;;;;18.26;84.58;99002.52;272127;1270;23390;-82
2023/10/12 16:08:15;;;;;;;19.40;8.70;;;;;;;18.16;85.65;99020.61;272626;1272;23576;-81
2023/10/12 16:14:17;;;;;;;15.40;7.90;;;;;;;18.03;86.95;99029.94;272800;1268;22443;-81
2023/10/12 16:20:20;;;;;;;14.00;8.30;;;;;;;17.91;88.50;99026.68;272851;1272;22287;-82
2023/10/12 16:26:38;;;;;;;18.10;9.70;;;;;;;17.76;89.63;99044.27;272849;1272;22200;-81
2023/10/12 16:32:48;;;;;;;18.40;10.30;;;;;;;17.52;90.66;99048.69;269395;1272;24454;-84
2023/10/12 16:38:50;;;;;;;17.30;10.30;;;;;;;17.34;91.80;99055.98;261272;1272;10001960;-82
2023/10/12 16:45:08;;;;;;;20.40;9.20;;;;;;;17.15;92.32;99053.40;270412;1272;22243;-84
2023/10/12 16:51:10;;;;;;;19.80;9.40;;;;;;;16.95;93.02;99061.27;269762;1272;22995;-84
2023/10/12 16:57:13;;;;;;;17.70;9.30;;;;;;;16.77;94.11;99066.73;271381;1271;22222;-82
2023/10/12 17:03:17;;;;;;;14.70;6.40;;;;;;;16.59;94.83;99057.16;272267;1270;22249;-82
2023/10/12 17:09:22;;;;;;;13.80;6.00;;;;;;;16.43;95.72;99062.55;272750;1269;22415;-82
2023/10/12 17:15:44;;;;;;;11.80;5.00;;;;;;;16.30;96.42;99051.86;273060;1275;22239;-82
2023/10/12 17:21:46;;;;;;;11.30;5.20;;;;;;;16.22;97.23;99051.64;270551;1270;23143;-81
2023/10/12 17:27:47;;;;;;;11.40;5.50;;;;;;;16.13;97.97;99051.17;270200;1272;22587;-84
2023/10/12 17:33:50;;;;;;;13.90;5.70;;;;;;;16.10;98.80;99057.20;269486;1264;24184;-82
2023/10/12 17:39:52;;;;;;;13.30;6.20;;;;;;;16.06;99.28;99061.03;270832;1270;22233;-82
2023/10/12 17:45:54;;;;;;;13.40;6.50;;;;;;;16.03;99.91;99069.74;272027;1272;22334;-83
2023/10/12 17:51:56;;;;;;;19.90;8.40;;;;;;;15.96;99.66;99069.41;273050;1258;22807;-82
2023/10/12 17:57:58;;;;;;;21.40;9.10;;;;;;;15.89;100.00;99072.08;269785;1272;22697;-81
2023/10/12 18:04:00;;;;;;;18.70;9.20;;;;;;;15.84;100.00;99076.94;270472;1270;22587;-81
2023/10/12 18:10:03;;;;;;;18.20;7.50;;;;;;;15.79;100.00;99077.92;272775;1271;22506;-81
2023/10/12 18:16:06;;;;;;;13.40;8.60;;;;;;;15.73;100.00;99083.27;272706;1270;22452;-83
2023/10/12 18:22:08;;;;;;;11.20;8.50;;;;;;;15.65;100.00;99089.92;272211;1272;22192;-82
2023/10/12 18:28:16;;;;;;;13.00;9.10;;;;;;;15.70;100.00;99097.23;272846;1270;23164;-82
2023/10/12 18:34:33;;;;;;;15.80;9.80;;;;;;;15.76;100.00;99103.73;273146;1270;23293;-81
2023/10/12 18:40:35;;;;;;;15.90;10.40;;;;;;;15.79;100.00;99105.20;271628;1270;23818;-81
2023/10/12 18:46:39;;;;;;;15.40;11.10;;;;;;;15.78;100.00;99107.27;271946;1259;23353;-81
2023/10/12 18:52:41;;;;;;;18.50;12.30;;;;;;;15.80;100.00;99114.44;272659;1270;23108;-81
2023/10/12 18:58:46;;;;;;;23.40;13.00;;;;;;;15.81;100.00;99118.60;273478;1272;22222;-81
2023/10/12 19:04:49;;;;;;;22.20;11.40;;;;;;;15.80;100.00;99119.15;273468;1270;22208;-81
2023/10/12 19:10:54;;;;;;;20.70;10.00;;;;;;;15.77;100.00;99120.20;272902;1270;22875;-81
2023/10/12 19:16:56;;;;;;;20.10;10.90;;;;;;;15.71;100.00;99127.20;272887;1270;22225;-82
2023/10/12 19:23:00;;;;;;;20.20;10.70;;;;;;;15.64;100.00;99124.80;273178;1270;22887;-81
2023/10/12 19:29:06;;;;;;;20.50;9.40;;;;;;;15.58;100.00;99120.58;272985;1270;23229;-81
2023/10/12 19:35:11;;;;;;;20.10;9.50;;;;;;;15.48;100.00;99119.06;272889;1270;22329;-82
2023/10/12 19:41:13;;;;;;;21.10;8.50;;;;;;;15.40;100.00;99116.75;272932;1270;22724;-81
2023/10/12 19:47:14;;;;;;;17.10;7.80;;;;;;;15.35;100.00;99117.39;273437;1273;23599;-81
2023/10/12 19:53:16;;;;;;;16.30;8.40;;;;;;;15.31;100.00;99119.63;273289;1272;22324;-81
2023/10/12 19:59:18;;;;;;;13.20;7.80;;;;;;;15.30;100.00;99120.58;272962;1270;22217;-82
2023/10/12 20:05:22;;;;;;;16.50;8.10;;;;;;;15.26;100.00;99120.74;272964;1270;23229;-81
2023/10/12 20:11:24;;;;;;;15.50;7.90;;;;;;;15.23;100.00;99123.38;272850;1270;22348;-81
2023/10/12 20:17:26;;;;;;;15.00;7.30;;;;;;;15.19;100.00;99127.09;272818;1267;22270;-81
2023/10/12 20:23:29;;;;;;;17.60;7.00;;;;;;;15.15;100.00;99129.86;273234;1272;22201;-81
2023/10/12 20:29:30;;;;;;;21.90;7.60;;;;;;;15.03;100.00;99129.45;272961;1270;22182;-81
2023/10/12 20:35:32;;;;;;;17.40;8.00;;;;;;;14.92;100.00;99126.75;272792;1270;22317;-81
2023/10/12 20:41:35;;;;;;;17.30;6.90;;;;;;;14.84;100.00;99123.70;273184;1271;22249;-81
2023/10/12 20:47:59;;;;;;;20.00;7.40;;;;;;;14.78;100.00;99122.48;271959;1270;22348;-83
2023/10/12 20:54:10;;;;;;;13.90;6.00;;;;;;;14.79;100.00;99121.77;270886;1267;22716;-82
2023/10/12 21:00:13;;;;;;;17.70;6.80;;;;;;;14.74;100.00;99116.04;269511;1270;22543;-80
2023/10/12 21:06:20;;;;;;;13.90;5.60;;;;;;;14.73;100.00;99112.73;269399;1270;22493;-83
2023/10/12 21:12:27;;;;;;;14.40;6.40;;;;;;;14.68;100.00;99105.73;269515;1271;22652;-81
2023/10/12 21:18:35;;;;;;;10.80;5.70;;;;;;;14.65;100.00;99102.22;270281;1270;22171;-82
2023/10/12 21:24:37;;;;;;;15.50;5.50;;;;;;;14.59;100.00;99094.27;272975;1270;22890;-81
2023/10/12 21:30:56;;;;;;;14.00;5.70;;;;;;;14.50;100.00;99091.40;269997;1260;23838;-80
2023/10/12 21:37:05;;;;;;;13.10;5.10;;;;;;;14.47;100.00;99086.45;269764;1270;22551;-82
2023/10/12 21:43:09;;;;;;;10.80;4.80;;;;;;;14.46;100.00;99079.30;269907;1270;22742;-81
2023/10/12 21:49:10;;;;;;;10.10;5.10;;;;;;;14.47;100.00;99077.71;269881;1272;23052;-82
2023/10/12 21:55:14;;;;;;;12.30;4.90;;;;;;;14.46;100.00;99082.99;269615;1270;22544;-83
2023/10/12 22:01:26;;;;;;;14.50;5.10;;;;;;;14.45;100.00;99087.24;270706;1270;22539;-82
2023/10/12 22:07:28;;;;;;;15.00;5.30;;;;;;;14.46;100.00;99083.54;269964;1270;22255;-82
2023/10/12 22:13:54;;;;;;;8.90;4.90;;;;;;;14.50;100.00;99087.30;270392;1272;24673;-82
2023/10/12 22:20:02;;;;;;;15.20;4.80;;;;;;;14.51;100.00;99088.17;271126;1270;22973;-82
2023/10/12 22:26:05;;;;;;;11.40;5.00;;;;;;;14.52;100.00;99089.90;271893;1270;22423;-83
2023/10/12 22:32:07;;;;;;;12.30;5.10;;;;;;;14.52;100.00;99088.41;272600;1272;23984;-82
2023/10/12 22:38:08;;;;;;;11.00;5.10;;;;;;;14.52;100.00;99090.84;271149;1271;22536;-82
2023/10/12 22:44:11;;;;;;;10.20;5.10;;;;;;;14.53;100.00;99098.86;272966;1270;22395;-84
2023/10/12 22:50:13;;;;;;;13.10;5.50;;;;;;;14.58;100.00;99100.03;273080;1268;22219;-82
2023/10/12 22:56:15;;;;;;;14.20;5.10;;;;;;;14.58;100.00;99105.15;271481;1270;22694;-82
2023/10/12 23:02:19;;;;;;;8.80;5.30;;;;;;;14.61;100.00;99104.52;272579;1266;22380;-82
2023/10/12 23:08:22;;;;;;;15.10;5.60;;;;;;;14.63;100.00;99115.04;273214;1263;22357;-82
2023/10/12 23:14:27;;;;;;;13.50;5.90;;;;;;;14.63;100.00;99123.63;272593;1270;22197;-83
2023/10/12 23:20:38;;;;;;;10.80;6.40;;;;;;;14.63;100.00;99126.62;272172;1264;25165;-82
2023/10/12 23:26:40;;;;;;;14.60;6.10;;;;;;;14.64;100.00;99131.81;270542;1270;22587;-82
2023/10/12 23:32:56;;;;;;;13.30;6.70;;;;;;;14.59;100.00;99130.73;269929;1270;22567;-82
2023/10/12 23:39:25;;;;;;;15.70;6.40;;;;;;;14.54;100.00;99138.69;270188;1264;22556;-82
2023/10/12 23:45:35;;;;;;;10.20;5.80;;;;;;;14.48;100.00;99138.23;270474;1272;22504;-82
2023/10/12 23:51:40;;;;;;;10.60;6.30;;;;;;;14.44;100.00;99131.88;273256;1265;22209;-81
2023/10/12 23:57:44;;;;;;;14.20;6.00;;;;;;;14.36;100.00;99122.67;272447;1271;22225;-82
